createdAt,value
2023-03-29T00:02:26.097Z,100148.56
2023-03-29T00:04:53.006Z,100142.53
2023-03-29T00:07:19.803Z,100148.56
2023-03-29T00:09:47.472Z,100138.63
2023-03-29T00:12:15.975Z,100143.91
2023-03-29T00:14:43.493Z,100146.53
2023-03-29T00:17:10.429Z,100148.16
2023-03-29T00:19:43.332Z,100144.06
2023-03-29T00:22:11.063Z,100140.56
2023-03-29T00:25:04.056Z,100145.41
2023-03-29T00:27:57.011Z,100150.63
2023-03-29T00:30:24.026Z,100152.94
2023-03-29T00:32:50.895Z,100149.75
2023-03-29T00:35:17.973Z,100148.69
2023-03-29T00:37:46.509Z,100151.13
2023-03-29T00:40:13.857Z,100163.34
2023-03-29T00:43:11.098Z,100162.25
2023-03-29T00:45:38.804Z,100163.69
2023-03-29T00:48:15.822Z,100163.75
2023-03-29T00:50:53.917Z,100154.22
2023-03-29T00:53:42.787Z,100154.38
2023-03-29T00:56:21.135Z,100150.28
2023-03-29T00:59:00.037Z,100146.66
2023-03-29T01:01:40.864Z,100137.22
2023-03-29T01:04:18.295Z,100137.31
2023-03-29T01:07:12.303Z,100130.59
2023-03-29T01:09:43.792Z,100138.44
2023-03-29T01:12:20.945Z,100142.50
2023-03-29T01:15:01.024Z,100140.66
2023-03-29T01:17:29.314Z,100133.38
2023-03-29T01:20:12.052Z,100131.19
2023-03-29T01:22:48.093Z,100139.03
2023-03-29T01:25:49.015Z,100131.06
2023-03-29T01:28:22.514Z,100126.47
2023-03-29T01:30:56.022Z,100128.41
2023-03-29T01:33:40.726Z,100133.50
2023-03-29T01:36:21.189Z,100134.63
2023-03-29T01:39:07.296Z,100126.66
2023-03-29T01:42:06.971Z,100120.47
2023-03-29T01:44:54.433Z,100120.38
2023-03-29T01:47:45.314Z,100110.44
2023-03-29T01:50:23.036Z,100114.25
2023-03-29T01:53:20.602Z,100118.41
2023-03-29T01:55:53.576Z,100115.72
2023-03-29T01:58:26.226Z,100112.03
2023-03-29T02:00:54.134Z,100117.59
2023-03-29T02:03:26.105Z,100114.81
2023-03-29T02:05:57.846Z,100113.44
2023-03-29T02:08:30.218Z,100104.28
2023-03-29T02:10:58.198Z,100099.09
2023-03-29T02:13:25.472Z,100105.63
2023-03-29T02:15:57.335Z,100105.69
2023-03-29T02:18:24.865Z,100102.59
2023-03-29T02:20:53.378Z,100111.91
2023-03-29T02:23:48.104Z,100121.19
2023-03-29T02:26:16.820Z,100117.06
2023-03-29T02:28:44.049Z,100115.09
2023-03-29T02:31:30.112Z,100116.47
2023-03-29T02:34:12.612Z,100117.06
2023-03-29T02:36:39.617Z,100115.75
2023-03-29T02:39:09.369Z,100116.53
2023-03-29T02:41:43.060Z,100113.28
2023-03-29T02:44:18.370Z,100109.97
2023-03-29T02:46:48.118Z,100120.06
2023-03-29T02:49:15.730Z,100113.09
2023-03-29T02:51:42.719Z,100109.19
2023-03-29T02:54:24.072Z,100118.13
2023-03-29T02:56:59.833Z,100113.16
2023-03-29T02:59:31.036Z,100115.75
2023-03-29T03:01:57.944Z,100108.63
2023-03-29T03:04:25.817Z,100117.31
2023-03-29T03:06:56.586Z,100114.19
2023-03-29T03:09:23.548Z,100109.97
2023-03-29T03:11:54.138Z,100109.94
2023-03-29T03:14:21.600Z,100114.28
2023-03-29T03:16:50.221Z,100107.91
2023-03-29T03:19:17.483Z,100100.22
2023-03-29T03:21:44.517Z,100098.03
2023-03-29T03:24:11.234Z,100092.88
2023-03-29T03:26:38.781Z,100093.91
2023-03-29T03:29:06.813Z,100090.09
2023-03-29T03:32:05.357Z,100084.94
2023-03-29T03:34:51.189Z,100090.16
2023-03-29T03:37:22.341Z,100082.00
2023-03-29T03:39:49.661Z,100083.47
2023-03-29T03:42:17.712Z,100085.47
2023-03-29T03:44:46.581Z,100076.94
2023-03-29T03:47:48.133Z,100073.72
2023-03-29T03:50:24.973Z,100074.75
2023-03-29T03:52:53.113Z,100082.53
2023-03-29T03:55:21.010Z,100080.31
2023-03-29T03:58:09.410Z,100079.72
2023-03-29T04:00:36.649Z,100077.47
2023-03-29T04:06:17.065Z,100071.16
2023-03-29T04:09:04.434Z,100060.03
2023-03-29T04:11:37.169Z,100058.25
2023-03-29T04:14:05.061Z,100059.22
2023-03-29T04:16:54.031Z,100065.97
2023-03-29T04:19:44.143Z,100056.66
2023-03-29T04:22:12.597Z,100047.66
2023-03-29T04:24:39.474Z,100051.03
2023-03-29T04:27:32.096Z,100056.25
2023-03-29T04:30:05.598Z,100056.88
2023-03-29T04:33:08.494Z,100053.09
2023-03-29T04:35:36.982Z,100066.81
2023-03-29T04:38:04.649Z,100057.75
2023-03-29T04:40:31.940Z,100045.34
2023-03-29T04:43:14.178Z,100046.53
2023-03-29T04:45:52.628Z,100053.28
2023-03-29T04:48:38.102Z,100054.84
2023-03-29T04:51:05.888Z,100058.84
2023-03-29T04:53:34.514Z,100061.63
2023-03-29T04:56:03.309Z,100065.22
2023-03-29T04:58:50.930Z,100066.25
2023-03-29T05:01:20.503Z,100067.44
2023-03-29T05:04:12.872Z,100056.66
2023-03-29T05:06:50.147Z,100056.19
2023-03-29T05:09:17.866Z,100056.78
2023-03-29T05:11:52.637Z,100056.41
2023-03-29T05:14:21.676Z,100058.34
2023-03-29T05:16:48.496Z,100050.41
2023-03-29T05:19:15.793Z,100056.78
2023-03-29T05:21:46.919Z,100054.53
2023-03-29T05:24:17.753Z,100052.81
2023-03-29T05:26:59.097Z,100051.59
2023-03-29T05:29:29.440Z,100062.69
2023-03-29T05:32:12.266Z,100044.31
2023-03-29T05:34:39.857Z,100037.72
2023-03-29T05:37:06.908Z,100038.34
2023-03-29T05:39:46.194Z,100038.66
2023-03-29T05:42:13.099Z,100031.72
2023-03-29T05:44:54.014Z,100038.44
2023-03-29T05:47:21.493Z,100039.88
2023-03-29T05:49:48.405Z,100044.59
2023-03-29T05:52:20.551Z,100047.66
2023-03-29T05:54:47.647Z,100055.53
2023-03-29T05:57:16.173Z,100060.94
2023-03-29T05:59:43.760Z,100064.63
2023-03-29T06:02:12.499Z,100070.28
2023-03-29T06:04:44.931Z,100067.22
2023-03-29T06:07:25.169Z,100063.44
2023-03-29T06:10:14.954Z,100068.91
2023-03-29T06:12:47.018Z,100066.91
2023-03-29T06:15:14.324Z,100053.31
2023-03-29T06:17:47.425Z,100047.28
2023-03-29T06:20:15.069Z,100051.56
2023-03-29T06:22:45.245Z,100050.84
2023-03-29T06:25:12.270Z,100057.16
2023-03-29T06:27:41.708Z,100061.53
2023-03-29T06:30:09.697Z,100054.78
2023-03-29T06:32:37.804Z,100061.38
2023-03-29T06:35:16.429Z,100057.94
2023-03-29T06:37:49.239Z,100050.94
2023-03-29T06:40:39.607Z,100059.06
2023-03-29T06:43:07.037Z,100056.50
2023-03-29T06:45:43.587Z,100063.00
2023-03-29T06:48:33.181Z,100061.38
2023-03-29T06:51:00.516Z,100057.22
2023-03-29T06:53:29.831Z,100061.28
2023-03-29T06:56:00.993Z,100059.03
2023-03-29T06:58:42.365Z,100062.06
2023-03-29T07:01:29.234Z,100061.97
2023-03-29T07:04:02.666Z,100067.81
2023-03-29T07:06:33.725Z,100062.28
2023-03-29T07:09:01.849Z,100059.81
2023-03-29T07:11:53.143Z,100051.47
2023-03-29T07:14:24.245Z,100053.72
2023-03-29T07:16:53.002Z,100050.66
2023-03-29T07:19:29.104Z,100051.78
2023-03-29T07:21:56.868Z,100054.16
2023-03-29T07:24:34.722Z,100048.03
2023-03-29T07:27:05.370Z,100043.06
2023-03-29T07:29:33.778Z,100046.69
2023-03-29T07:32:00.545Z,100046.78
2023-03-29T07:34:45.477Z,100049.28
2023-03-29T07:37:22.337Z,100049.38
2023-03-29T07:39:50.447Z,100048.22
2023-03-29T07:42:35.998Z,100048.34
2023-03-29T07:45:07.242Z,100051.81
2023-03-29T07:47:46.681Z,100050.91
2023-03-29T07:50:13.817Z,100047.59
2023-03-29T07:52:41.243Z,100041.00
2023-03-29T07:55:12.307Z,100044.25
2023-03-29T07:57:53.620Z,100041.66
2023-03-29T08:00:26.251Z,100033.16
2023-03-29T08:03:14.309Z,100039.94
2023-03-29T08:05:42.825Z,100032.75
2023-03-29T08:08:11.564Z,100028.69
2023-03-29T08:10:58.334Z,100028.78
2023-03-29T08:13:51.910Z,100026.72
2023-03-29T08:16:42.169Z,100026.41
2023-03-29T08:19:13.353Z,100030.22
2023-03-29T08:22:12.006Z,100022.25
2023-03-29T08:24:57.433Z,100027.53
2023-03-29T08:27:29.262Z,100022.41
2023-03-29T08:29:57.838Z,100023.06
2023-03-29T08:32:25.250Z,100025.31
2023-03-29T08:34:52.771Z,100034.41
2023-03-29T08:37:25.242Z,100034.00
2023-03-29T08:39:55.225Z,100033.06
2023-03-29T08:42:55.401Z,100021.34
2023-03-29T08:45:32.446Z,100026.66
2023-03-29T08:48:07.472Z,100017.88
2023-03-29T08:50:40.947Z,100011.19
2023-03-29T08:53:19.085Z,100019.28
2023-03-29T08:56:27.742Z,100014.13
2023-03-29T08:59:22.245Z,100013.88
2023-03-29T09:01:52.781Z,100001.63
2023-03-29T09:04:23.965Z,100002.25
2023-03-29T09:07:11.889Z,100003.56
2023-03-29T09:13:10.060Z,99996.56
2023-03-29T09:15:45.987Z,100005.69
2023-03-29T09:18:52.254Z,100005.78
2023-03-29T09:21:30.225Z,100008.72
2023-03-29T09:24:10.553Z,100015.88
2023-03-29T09:26:56.389Z,100012.53
2023-03-29T09:29:29.767Z,100015.41
2023-03-29T09:31:56.946Z,100013.63
2023-03-29T09:34:32.279Z,100000.28
2023-03-29T09:37:21.903Z,100006.84
2023-03-29T09:40:38.353Z,100010.19
2023-03-29T09:43:29.376Z,100008.28
2023-03-29T09:46:02.429Z,100004.97
2023-03-29T09:48:34.867Z,100005.28
2023-03-29T09:51:05.378Z,99999.91
2023-03-29T09:53:32.558Z,100004.63
2023-03-29T09:56:31.301Z,100002.31
2023-03-29T09:59:06.192Z,100002.63
2023-03-29T10:01:41.495Z,99999.47
2023-03-29T10:04:10.389Z,100003.19
2023-03-29T10:06:49.320Z,99999.47
2023-03-29T10:09:24.028Z,99999.81
2023-03-29T10:11:59.308Z,100000.50
2023-03-29T10:14:41.358Z,99997.41
2023-03-29T10:17:22.364Z,99995.66
2023-03-29T10:20:04.457Z,99988.59
2023-03-29T10:22:37.234Z,99988.63
2023-03-29T10:25:13.834Z,99988.03
2023-03-29T10:27:43.481Z,99993.00
2023-03-29T10:30:22.980Z,99984.69
2023-03-29T10:32:59.314Z,99985.22
2023-03-29T10:35:37.373Z,99984.22
2023-03-29T10:38:10.140Z,99968.59
2023-03-29T10:40:44.083Z,99973.63
2023-03-29T10:43:36.141Z,99972.94
2023-03-29T10:46:10.668Z,99968.31
2023-03-29T10:48:37.664Z,99967.03
2023-03-29T10:51:05.675Z,99969.72
2023-03-29T10:53:35.463Z,99974.19
2023-03-29T10:56:25.369Z,99962.44
2023-03-29T10:59:10.728Z,99956.97
2023-03-29T11:02:00.975Z,99963.28
2023-03-29T11:04:48.790Z,99954.91
2023-03-29T11:07:28.783Z,99942.84
2023-03-29T11:10:26.527Z,99946.56
2023-03-29T11:13:01.254Z,99950.28
2023-03-29T11:15:50.145Z,99943.19
2023-03-29T11:18:39.486Z,99938.72
2023-03-29T11:21:44.345Z,99943.91
2023-03-29T11:24:35.471Z,99944.50
2023-03-29T11:27:24.547Z,99934.88
2023-03-29T11:30:11.415Z,99936.72
2023-03-29T11:32:55.235Z,99922.03
2023-03-29T11:36:20.969Z,99925.69
2023-03-29T11:39:16.635Z,99921.53
2023-03-29T11:41:48.432Z,99922.34
2023-03-29T11:44:20.968Z,99917.38
2023-03-29T11:47:00.385Z,99913.41
2023-03-29T11:49:45.680Z,99921.53
2023-03-29T11:52:19.273Z,99919.72
2023-03-29T11:55:10.532Z,99922.31
2023-03-29T11:57:44.112Z,99925.38
2023-03-29T12:00:13.821Z,99914.69
2023-03-29T12:03:00.509Z,99908.41
2023-03-29T12:06:13.695Z,99910.00
2023-03-29T12:08:46.451Z,99905.56
2023-03-29T12:11:22.482Z,99896.94
2023-03-29T12:13:54.790Z,99903.75
2023-03-29T12:16:35.121Z,99906.34
2023-03-29T12:19:45.418Z,99887.69
2023-03-29T12:22:14.205Z,99887.16
2023-03-29T12:24:48.444Z,99887.44
2023-03-29T12:27:26.235Z,99876.47
2023-03-29T12:30:27.435Z,99876.75
2023-03-29T12:33:19.976Z,99872.81
2023-03-29T12:36:33.218Z,99874.38
2023-03-29T12:39:24.404Z,99869.09
2023-03-29T12:42:23.563Z,99866.75
2023-03-29T12:45:40.042Z,99875.47
2023-03-29T12:48:14.112Z,99866.56
2023-03-29T12:50:58.467Z,99866.22
2023-03-29T12:53:32.305Z,99866.22
2023-03-29T12:56:03.041Z,99860.19
2023-03-29T12:58:39.433Z,99852.63
2023-03-29T13:01:26.951Z,99855.03
2023-03-29T13:04:15.203Z,99857.66
2023-03-29T13:06:47.738Z,99861.06
2023-03-29T13:09:27.968Z,99857.94
2023-03-29T13:12:11.043Z,99849.31
2023-03-29T13:14:42.654Z,99846.16
2023-03-29T13:17:24.721Z,99841.97
2023-03-29T13:20:43.968Z,99840.91
2023-03-29T13:23:20.236Z,99844.59
2023-03-29T13:26:02.573Z,99838.53
2023-03-29T13:28:43.365Z,99838.53
2023-03-29T13:31:38.244Z,99834.13
2023-03-29T13:34:09.254Z,99830.22
2023-03-29T13:36:50.759Z,99828.66
2023-03-29T13:39:29.567Z,99823.66
2023-03-29T13:42:26.154Z,99815.28
2023-03-29T13:44:53.263Z,99810.59
2023-03-29T13:47:25.877Z,99805.38
2023-03-29T13:49:57.877Z,99805.91
2023-03-29T13:52:30.405Z,99795.44
2023-03-29T13:54:57.378Z,99793.34
2023-03-29T13:57:31.457Z,99804.34
2023-03-29T14:00:11.308Z,99803.81
2023-03-29T14:02:49.840Z,99806.44
2023-03-29T14:05:20.373Z,99790.97
2023-03-29T14:07:51.202Z,99802.78
2023-03-29T14:10:37.898Z,99787.84
2023-03-29T14:13:05.272Z,99789.97
2023-03-29T14:15:50.649Z,99792.03
2023-03-29T14:18:22.312Z,99790.72
2023-03-29T14:20:55.383Z,99792.28
2023-03-29T14:23:29.291Z,99786.28
2023-03-29T14:26:15.650Z,99781.56
2023-03-29T14:28:53.124Z,99773.19
2023-03-29T14:31:26.033Z,99776.59
2023-03-29T14:33:54.767Z,99768.22
2023-03-29T14:36:22.743Z,99779.22
2023-03-29T14:38:56.852Z,99773.19
2023-03-29T14:41:28.612Z,99773.44
2023-03-29T14:43:56.722Z,99772.91
2023-03-29T14:46:24.256Z,99760.88
2023-03-29T14:48:51.926Z,99773.19
2023-03-29T14:51:19.113Z,99759.56
2023-03-29T14:53:48.384Z,99762.16
2023-03-29T14:56:17.425Z,99762.47
2023-03-29T14:58:46.105Z,99757.50
2023-03-29T15:01:18.560Z,99765.34
2023-03-29T15:06:52.557Z,99739.16
2023-03-29T15:09:26.717Z,99743.84
2023-03-29T15:11:59.751Z,99738.88
2023-03-29T15:14:30.306Z,99741.75
2023-03-29T15:17:03.738Z,99732.84
2023-03-29T15:19:31.759Z,99723.19
2023-03-29T15:22:04.416Z,99720.56
2023-03-29T15:24:33.832Z,99726.84
2023-03-29T15:27:03.651Z,99721.91
2023-03-29T15:29:39.580Z,99732.34
2023-03-29T15:32:21.121Z,99729.75
2023-03-29T15:35:02.524Z,99723.47
2023-03-29T15:37:29.884Z,99731.06
2023-03-29T15:39:56.653Z,99722.44
2023-03-29T15:42:25.372Z,99724.00
2023-03-29T15:44:56.060Z,99727.16
2023-03-29T15:47:24.865Z,99722.97
2023-03-29T15:49:52.387Z,99715.38
2023-03-29T15:52:19.227Z,99721.41
2023-03-29T15:54:45.956Z,99722.19
2023-03-29T15:57:16.485Z,99719.03
2023-03-29T15:59:43.788Z,99714.59
2023-03-29T16:02:23.445Z,99722.72
2023-03-29T16:04:51.053Z,99717.47
2023-03-29T16:07:19.573Z,99713.81
2023-03-29T16:09:46.891Z,99711.22
2023-03-29T16:12:14.108Z,99720.38
2023-03-29T16:14:43.253Z,99715.63
2023-03-29T16:17:10.262Z,99712.78
2023-03-29T16:19:38.270Z,99704.38
2023-03-29T16:22:05.168Z,99719.06
2023-03-29T16:24:33.785Z,99712.78
2023-03-29T16:27:03.391Z,99715.13
2023-03-29T16:29:30.480Z,99719.81
2023-03-29T16:31:58.324Z,99721.91
2023-03-29T16:34:26.324Z,99720.91
2023-03-29T16:36:53.257Z,99715.94
2023-03-29T16:39:20.028Z,99711.72
2023-03-29T16:41:49.338Z,99717.75
2023-03-29T16:44:20.705Z,99711.72
2023-03-29T16:46:49.440Z,99714.06
2023-03-29T16:49:16.227Z,99708.59
2023-03-29T16:51:43.150Z,99713.81
2023-03-29T16:54:10.049Z,99718.25
2023-03-29T16:57:02.506Z,99724.81
2023-03-29T16:59:30.495Z,99720.63
2023-03-29T17:01:57.397Z,99722.69
2023-03-29T17:04:25.373Z,99712.50
2023-03-29T17:06:53.005Z,99715.63
2023-03-29T17:09:20.574Z,99715.13
2023-03-29T17:11:47.604Z,99708.56
2023-03-29T17:14:18.298Z,99708.03
2023-03-29T17:16:45.670Z,99706.72
2023-03-29T17:19:12.510Z,99705.97
2023-03-29T17:21:39.316Z,99714.06
2023-03-29T17:24:06.837Z,99715.09
2023-03-29T17:26:33.904Z,99715.91
2023-03-29T17:29:04.841Z,99712.47
2023-03-29T17:31:32.146Z,99713.53
2023-03-29T17:33:59.107Z,99711.16
2023-03-29T17:36:26.734Z,99710.13
2023-03-29T17:38:53.809Z,99712.47
2023-03-29T17:41:21.302Z,99704.63
2023-03-29T17:43:48.186Z,99712.22
2023-03-29T17:46:15.269Z,99711.13
2023-03-29T17:48:42.281Z,99717.69
2023-03-29T17:51:09.675Z,99714.28
2023-03-29T17:53:37.054Z,99710.66
2023-03-29T17:56:05.063Z,99711.16
2023-03-29T17:58:33.465Z,99705.16
2023-03-29T18:01:07.889Z,99710.13
2023-03-29T18:03:35.668Z,99707.78
2023-03-29T18:06:03.820Z,99715.59
2023-03-29T18:08:31.789Z,99706.44
2023-03-29T18:11:20.537Z,99707.78
2023-03-29T18:13:48.503Z,99713.53
2023-03-29T18:16:15.709Z,99710.69
2023-03-29T18:18:42.827Z,99712.22
2023-03-29T18:21:10.181Z,99711.69
2023-03-29T18:23:39.498Z,99711.94
2023-03-29T18:26:07.866Z,99710.66
2023-03-29T18:28:36.847Z,99717.16
2023-03-29T18:31:06.160Z,99717.16
2023-03-29T18:33:34.782Z,99728.94
2023-03-29T18:36:10.819Z,99724.75
2023-03-29T18:38:41.472Z,99716.41
2023-03-29T18:41:10.040Z,99716.91
2023-03-29T18:43:38.308Z,99721.09
2023-03-29T18:46:08.299Z,99715.06
2023-03-29T18:48:37.556Z,99720.81
2023-03-29T18:51:10.328Z,99727.81
2023-03-29T18:53:39.834Z,99728.28
2023-03-29T18:56:07.536Z,99724.13
2023-03-29T18:58:36.649Z,99725.94
2023-03-29T19:01:06.466Z,99726.72
2023-03-29T19:03:35.538Z,99720.97
2023-03-29T19:06:04.712Z,99723.09
2023-03-29T19:08:32.933Z,99716.25
2023-03-29T19:11:02.699Z,99713.13
2023-03-29T19:13:30.570Z,99714.94
2023-03-29T19:15:59.863Z,99718.09
2023-03-29T19:18:30.879Z,99714.72
2023-03-29T19:20:58.621Z,99713.91
2023-03-29T19:23:27.320Z,99714.66
2023-03-29T19:26:19.952Z,99719.13
2023-03-29T19:28:47.736Z,99717.00
2023-03-29T19:31:15.720Z,99713.13
2023-03-29T19:33:43.908Z,99716.75
2023-03-29T19:36:12.283Z,99723.28
2023-03-29T19:38:40.327Z,99720.22
2023-03-29T19:41:08.384Z,99723.94
2023-03-29T19:43:36.952Z,99720.53
2023-03-29T19:46:10.457Z,99719.53
2023-03-29T19:48:39.762Z,99715.59
2023-03-29T19:51:07.971Z,99713.78
2023-03-29T19:53:38.761Z,99714.72
2023-03-29T19:56:06.969Z,99722.81
2023-03-29T19:58:34.314Z,99722.81
2023-03-29T20:01:03.138Z,99716.53
2023-03-29T20:03:30.567Z,99717.00
2023-03-29T20:05:57.658Z,99727.50
2023-03-29T20:08:24.578Z,99722.81
2023-03-29T20:11:07.423Z,99716.53
2023-03-29T20:13:39.034Z,99717.84
2023-03-29T20:16:12.481Z,99708.16
2023-03-29T20:18:39.828Z,99710.53
2023-03-29T20:21:09.189Z,99709.69
2023-03-29T20:23:36.756Z,99707.91
2023-03-29T20:26:03.748Z,99710.50
2023-03-29T20:28:30.821Z,99704.72
2023-03-29T20:31:02.838Z,99695.88
2023-03-29T20:33:30.091Z,99703.19
2023-03-29T20:35:57.181Z,99704.00
2023-03-29T20:38:24.824Z,99701.34
2023-03-29T20:40:52.441Z,99702.16
2023-03-29T20:43:19.333Z,99687.28
2023-03-29T20:45:52.499Z,99687.50
2023-03-29T20:48:20.879Z,99698.75
2023-03-29T20:50:48.379Z,99688.31
2023-03-29T20:53:15.453Z,99688.00
2023-03-29T20:55:42.400Z,99689.56
2023-03-29T20:58:09.927Z,99683.06
2023-03-29T21:00:36.717Z,99682.78
2023-03-29T21:03:03.829Z,99685.13
2023-03-29T21:05:32.267Z,99683.09
2023-03-29T21:08:00.207Z,99679.41
2023-03-29T21:10:28.218Z,99671.78
2023-03-29T21:12:55.345Z,99673.91
2023-03-29T21:15:22.857Z,99661.38
2023-03-29T21:17:49.781Z,99666.38
2023-03-29T21:20:16.576Z,99658.25
2023-03-29T21:22:43.449Z,99664.00
2023-03-29T21:25:13.176Z,99659.56
2023-03-29T21:27:40.267Z,99651.94
2023-03-29T21:30:08.643Z,99655.34
2023-03-29T21:32:35.740Z,99655.88
2023-03-29T21:35:02.649Z,99647.53
2023-03-29T21:37:29.543Z,99648.31
2023-03-29T21:39:56.388Z,99652.19
2023-03-29T21:42:23.331Z,99642.03
2023-03-29T21:44:50.139Z,99647.25
2023-03-29T21:47:17.028Z,99637.88
2023-03-29T21:49:44.769Z,99642.56
2023-03-29T21:52:11.881Z,99631.84
2023-03-29T21:54:38.752Z,99617.22
2023-03-29T21:57:05.564Z,99615.91
2023-03-29T21:59:32.953Z,99620.59
2023-03-29T22:01:59.779Z,99616.72
2023-03-29T22:04:36.065Z,99629.78
2023-03-29T22:07:06.246Z,99621.84
2023-03-29T22:09:34.175Z,99614.22
2023-03-29T22:12:02.410Z,99624.97
2023-03-29T22:14:32.614Z,99617.88
2023-03-29T22:19:50.742Z,99623.78
2023-03-29T22:22:18.507Z,99609.16
2023-03-29T22:24:45.376Z,99613.63
2023-03-29T22:27:12.149Z,99610.97
2023-03-29T22:29:39.309Z,99615.63
2023-03-29T22:32:06.246Z,99605.13
2023-03-29T22:34:33.296Z,99615.06
2023-03-29T22:37:00.157Z,99611.94
2023-03-29T22:39:26.960Z,99599.47
2023-03-29T22:41:53.960Z,99596.75
2023-03-29T22:44:22.459Z,99608.84
2023-03-29T22:46:49.477Z,99610.03
2023-03-29T22:49:16.439Z,99602.94
2023-03-29T22:51:43.248Z,99608.72
2023-03-29T22:54:11.418Z,99603.28
2023-03-29T22:56:38.433Z,99598.50
2023-03-29T22:59:05.391Z,99602.22
2023-03-29T23:01:32.288Z,99595.41
2023-03-29T23:03:59.118Z,99594.69
2023-03-29T23:06:25.970Z,99603.50
2023-03-29T23:08:52.899Z,99600.81
2023-03-29T23:11:19.657Z,99594.44
2023-03-29T23:13:46.567Z,99598.78
2023-03-29T23:16:13.545Z,99603.00
2023-03-29T23:18:40.341Z,99605.44
2023-03-29T23:21:08.133Z,99601.88
2023-03-29T23:23:35.926Z,99589.66
2023-03-29T23:26:02.776Z,99599.56
2023-03-29T23:28:32.401Z,99599.56
2023-03-29T23:31:02.297Z,99600.16
2023-03-29T23:33:31.849Z,99597.19
2023-03-29T23:35:59.660Z,99599.34
2023-03-29T23:38:26.657Z,99592.72
2023-03-29T23:40:55.286Z,99595.66
2023-03-29T23:43:22.159Z,99587.63
2023-03-29T23:45:55.738Z,99592.09
2023-03-29T23:48:22.839Z,99588.72
2023-03-29T23:50:50.190Z,99587.94
2023-03-29T23:53:17.036Z,99584.44
2023-03-29T23:55:45.055Z,99582.94
2023-03-29T23:58:11.902Z,99575.88
